Terminal Aerodrome Forecast
Issued by NWS Memphis, TN

Current Version | Previous Version | Text Only | Print | Product List | Glossary On
Versions: 1 2 3 4 5 6 7 8 9 10 11 12 13 14 15 16 17 18 19 20 21
000
FTUS44 KMEG 300530
TAFJBR
TAF
KJBR 300530Z 3006/3106 16010KT P6SM SCT040 BKN150
     FM300700 18010KT P6SM VCTS BKN035CB OVC150
      TEMPO 3008/3012 3SM -TSRA OVC015CB
     FM301200 21010KT P6SM VCTS BKN015 OVC025CB
     FM301600 23012G20KT P6SM VCTS BKN025CB OVC100
      TEMPO 3016/3020 2SM TSRA OVC008CB
     FM302000 27012G20KT P6SM VCTS BKN035CB OVC100
     FM302300 30008KT P6SM BKN050 BKN150=

USA.gov is the U.S. government's official web portal to all federal, state and local government web resources and services.